Airfield :
LOGIN :

Register | Disclaimer

   EN    FR    IT 

 










Legend :    VFR   Marginal VFR   IFR   Intensive IFR   Very Intensive IFR
Visi :
Ceiling :
>= 8 km
>= 3000ft
5 to 8 km
1000 to 3000 ft
1500m to 5 km
500 to 1000 ft
800 to 1500m
200 to 500 ft
< 800m
< 200 ft
Symbols :   Thunderstorms  Fog  Heavy snow  Heavy precipitations  Wind > 20 kt
SIGMETs :     Misc.  Thunderstorms  Icing  Turbulence  Mountain Waves  Volcanic Ashes






- Airport Elevation : 362 ft
- IATA code : WAW


EPWA - Warsaw Okecie

CURRENT METAR :
  • 211600Z 11019KT 9999 BKN013 06/03 Q1018 NOSIG

EXPIRED METARs :
  • 211530Z 11020KT 9999 BKN013 06/03 Q1018 NOSIG
  • 211500Z 11022KT 9999 OVC012 06/03 Q1018 NOSIG
  • 211430Z 11018KT 9999 OVC013 06/04 Q1018 NOSIG
  • 211400Z 12019KT 9999 BKN012 07/04 Q1018 NOSIG
  • 211330Z 11018KT 9999 BKN012 07/04 Q1018 NOSIG
  • 211300Z 12020KT 9999 BKN011 07/05 Q1018 NOSIG

TAF TAF EPWA
Valid from the 21 at 15:00 until the 22 at 15:00 UTC


211430Z 2115/2215 11015KT 9999 BKN013
TEMPO 2115/2206 13020G34KT BKN008
TEMPO 2206/2215 13015G28KT
BECMG 2208/2211 SCT025



MET'MAP, your aeronautical weather chart ! - Copyright ORBIFLY December 2007 - Disclaimer

ORBIFLY MET'MAP TEAM :

Programming & Development : Alexandra Zaïnal
Concept & Development : Baudouin d'Aumeries
Co-Development & Prog : Marc-Olivier Méhu
Technical & hardware support : Manuel Goepfert

Contact : metmap@orbifly.com




SOURCES & CREDITS :

   NOAA